Time;durP1;ratioP1;P1;durP2;ratioP2;P2;SDS_P1;SDS_P2;PMS_P1;PMS_P2;Temp;Humidity;BMP_temperature;BMP_pressure;BME280_temperature;BME280_humidity;BME280_pressure;Samples;Min_cycle;Max_cycle;Signal;HPM_P1;HPM_P2
2023/10/08 00:02:27;;;;;;;4.18;2.85;;;;;;;;;;4982448;28;20533;-69
2023/10/08 00:04:54;;;;;;;3.60;2.92;;;;;;;;;;4980257;28;20031;-69
2023/10/08 00:07:21;;;;;;;4.03;2.83;;;;;;;;;;4981506;28;20038;-70
2023/10/08 00:09:52;;;;;;;3.38;2.50;;;;;;;;;;4983369;28;20034;-70
2023/10/08 00:12:19;;;;;;;3.85;2.97;;;;;;;;;;4983249;28;20058;-69
2023/10/08 00:14:48;;;;;;;3.33;2.60;;;;;;;;;;4981668;28;20015;-70
2023/10/08 00:17:15;;;;;;;3.00;2.70;;;;;;;;;;4982503;28;20117;-70
2023/10/08 00:19:43;;;;;;;3.25;2.58;;;;;;;;;;4984758;28;20030;-70
2023/10/08 00:22:13;;;;;;;3.83;2.70;;;;;;;;;;4982042;28;20035;-71
2023/10/08 00:24:41;;;;;;;3.60;2.75;;;;;;;;;;4982292;28;20030;-70
2023/10/08 00:27:08;;;;;;;4.00;2.70;;;;;;;;;;4983938;28;20089;-73
2023/10/08 00:29:38;;;;;;;3.80;2.88;;;;;;;;;;4981535;28;20615;-70
2023/10/08 00:32:11;;;;;;;3.00;2.50;;;;;;;;;;4982953;28;20023;-71
2023/10/08 00:34:41;;;;;;;4.47;2.70;;;;;;;;;;4980621;28;20022;-70
2023/10/08 00:37:08;;;;;;;;;;;;;;;;;;4979780;28;20031;-70
2023/10/08 00:39:37;;;;;;;3.08;2.53;;;;;;;;;;4981351;28;20370;-71
2023/10/08 00:42:04;;;;;;;3.60;2.63;;;;;;;;;;4981221;28;20074;-75
2023/10/08 00:44:30;;;;;;;2.85;2.58;;;;;;;;;;4981567;28;20382;-70
2023/10/08 00:47:04;;;;;;;2.60;2.40;;;;;;;;;;4980844;28;20030;-70
2023/10/08 00:57:26;;;;;;;3.55;2.50;;;;;;;;;;4980963;28;19921;-70
2023/10/08 00:59:53;;;;;;;3.33;2.80;;;;;;;;;;4983341;28;20026;-70
2023/10/08 01:02:27;;;;;;;2.83;2.55;;;;;;;;;;4982834;28;20495;-70
2023/10/08 01:04:54;;;;;;;2.88;2.58;;;;;;;;;;4980597;28;20057;-70
2023/10/08 01:07:21;;;;;;;2.95;2.67;;;;;;;;;;4978075;28;20085;-70
2023/10/08 01:12:53;;;;;;;3.08;2.78;;;;;;;;;;4967397;28;20038;-71
2023/10/08 01:15:23;;;;;;;3.85;2.63;;;;;;;;;;4979350;28;20038;-70
2023/10/08 01:18:00;;;;;;;2.65;2.35;;;;;;;;;;4981138;28;20058;-71
2023/10/08 01:23:20;;;;;;;3.65;2.83;;;;;;;;;;4982168;28;20029;-70
2023/10/08 01:25:52;;;;;;;2.72;2.50;;;;;;;;;;4962991;28;20037;-70
2023/10/08 01:28:30;;;;;;;3.00;2.55;;;;;;;;;;4980634;28;20033;-71
2023/10/08 01:31:00;;;;;;;3.28;2.30;;;;;;;;;;4980613;28;20030;-70
2023/10/08 01:33:30;;;;;;;2.90;2.60;;;;;;;;;;4982835;28;20048;-75
2023/10/08 01:36:04;;;;;;;2.75;2.50;;;;;;;;;;4977402;28;20194;-70
2023/10/08 01:38:33;;;;;;;3.58;2.88;;;;;;;;;;4979609;28;20027;-70
2023/10/08 01:41:03;;;;;;;3.00;2.70;;;;;;;;;;4980066;28;20536;-70
2023/10/08 01:43:29;;;;;;;3.50;2.42;;;;;;;;;;4982143;28;20045;-70
2023/10/08 01:45:55;;;;;;;3.90;2.78;;;;;;;;;;4981005;28;20084;-70
2023/10/08 01:48:37;;;;;;;2.90;2.60;;;;;;;;;;4980432;28;20400;-70
2023/10/08 01:51:08;;;;;;;4.18;2.63;;;;;;;;;;4979979;28;20030;-70
2023/10/08 01:53:35;;;;;;;3.97;2.80;;;;;;;;;;4979921;28;20027;-70
2023/10/08 01:56:01;;;;;;;2.78;2.28;;;;;;;;;;4964224;28;20027;-74
2023/10/08 01:58:27;;;;;;;2.83;2.60;;;;;;;;;;4981789;28;20491;-70
2023/10/08 02:00:58;;;;;;;3.33;2.90;;;;;;;;;;4979929;28;20027;-69
2023/10/08 02:03:24;;;;;;;3.78;2.60;;;;;;;;;;4981543;28;20448;-69
2023/10/08 02:05:53;;;;;;;3.00;2.70;;;;;;;;;;4976806;28;20034;-69
2023/10/08 02:08:19;;;;;;;3.10;2.63;;;;;;;;;;4980687;28;20621;-70
2023/10/08 02:10:47;;;;;;;2.53;2.33;;;;;;;;;;4980010;28;20288;-70
2023/10/08 02:13:14;;;;;;;3.97;2.72;;;;;;;;;;4981202;28;20059;-69
2023/10/08 02:16:07;;;;;;;3.20;2.72;;;;;;;;;;4979970;28;20154;-70
2023/10/08 02:18:32;;;;;;;3.58;2.42;;;;;;;;;;4975887;28;20093;-69
2023/10/08 02:20:58;;;;;;;3.05;2.72;;;;;;;;;;4979212;28;20031;-70
2023/10/08 02:23:27;;;;;;;2.72;2.45;;;;;;;;;;4981443;28;20026;-69
2023/10/08 02:25:54;;;;;;;3.35;2.78;;;;;;;;;;4978987;28;20041;-69
2023/10/08 02:28:20;;;;;;;3.03;2.50;;;;;;;;;;4978825;28;20106;-71
2023/10/08 02:30:46;;;;;;;2.75;2.50;;;;;;;;;;4979753;28;20062;-71
2023/10/08 02:33:15;;;;;;;3.38;2.80;;;;;;;;;;4979382;28;20031;-70
2023/10/08 02:35:43;;;;;;;3.57;2.80;;;;;;;;;;4977493;28;20031;-69
2023/10/08 02:38:16;;;;;;;2.63;2.33;;;;;;;;;;4978720;28;20697;-70
2023/10/08 02:40:46;;;;;;;3.42;2.75;;;;;;;;;;4980383;28;20038;-69
2023/10/08 02:43:14;;;;;;;2.80;2.28;;;;;;;;;;4979712;28;20428;-70
2023/10/08 02:45:40;;;;;;;2.95;2.60;;;;;;;;;;4979438;28;20027;-70
2023/10/08 02:48:13;;;;;;;3.78;2.60;;;;;;;;;;4961834;28;20037;-70
2023/10/08 02:50:45;;;;;;;3.05;2.70;;;;;;;;;;4980253;28;20185;-70
2023/10/08 02:53:11;;;;;;;3.67;2.60;;;;;;;;;;4980802;28;20046;-70
2023/10/08 02:55:46;;;;;;;3.05;2.47;;;;;;;;;;4981537;28;20503;-70
2023/10/08 02:58:18;;;;;;;2.80;2.47;;;;;;;;;;4978041;28;20030;-72
2023/10/08 03:00:49;;;;;;;3.17;2.60;;;;;;;;;;4980391;28;20022;-75
2023/10/08 03:03:15;;;;;;;2.80;2.40;;;;;;;;;;4978808;28;20023;-70
2023/10/08 03:05:52;;;;;;;3.20;2.70;;;;;;;;;;4975804;28;20027;-69
2023/10/08 03:08:20;;;;;;;3.10;2.80;;;;;;;;;;4979455;28;20022;-70
2023/10/08 03:10:50;;;;;;;3.67;2.55;;;;;;;;;;4979049;28;20373;-70
2023/10/08 03:13:17;;;;;;;3.10;2.72;;;;;;;;;;4977814;28;20053;-70
2023/10/08 03:15:57;;;;;;;2.60;2.40;;;;;;;;;;4977828;28;20078;-70
2023/10/08 03:18:23;;;;;;;4.22;2.90;;;;;;;;;;4979723;28;20065;-70
2023/10/08 03:20:49;;;;;;;3.42;2.50;;;;;;;;;;4980675;28;20550;-69
2023/10/08 03:23:35;;;;;;;3.45;2.50;;;;;;;;;;4980763;28;20045;-70
2023/10/08 03:26:17;;;;;;;3.35;2.60;;;;;;;;;;4978747;28;20031;-71
2023/10/08 03:28:43;;;;;;;3.20;2.70;;;;;;;;;;4977483;28;20030;-69
2023/10/08 03:31:17;;;;;;;3.25;2.80;;;;;;;;;;4978031;28;20373;-70
2023/10/08 03:33:48;;;;;;;3.60;2.75;;;;;;;;;;4977563;28;20097;-69
2023/10/08 03:36:20;;;;;;;2.35;2.15;;;;;;;;;;4974449;28;20106;-70
2023/10/08 03:38:52;;;;;;;2.55;2.20;;;;;;;;;;4980453;28;20133;-69
2023/10/08 03:41:27;;;;;;;3.33;2.78;;;;;;;;;;4977863;28;20027;-69
2023/10/08 03:43:55;;;;;;;3.88;2.75;;;;;;;;;;4979188;28;20476;-70
2023/10/08 03:46:23;;;;;;;3.05;2.55;;;;;;;;;;4977546;28;20103;-70
2023/10/08 03:48:51;;;;;;;3.88;2.53;;;;;;;;;;4981015;28;20019;-70
2023/10/08 03:51:22;;;;;;;3.35;2.50;;;;;;;;;;4979306;28;20118;-70
2023/10/08 03:54:10;;;;;;;4.15;2.75;;;;;;;;;;4978711;28;20054;-70
2023/10/08 03:56:36;;;;;;;2.45;2.25;;;;;;;;;;4978503;28;20076;-70
2023/10/08 04:01:54;;;;;;;2.65;2.45;;;;;;;;;;4979208;28;20069;-73
2023/10/08 04:04:21;;;;;;;2.70;2.45;;;;;;;;;;4960704;28;20035;-69
2023/10/08 04:06:51;;;;;;;3.05;2.40;;;;;;;;;;4976387;28;20110;-70
2023/10/08 04:12:03;;;;;;;3.22;2.78;;;;;;;;;;4977940;28;20018;-70
2023/10/08 04:14:29;;;;;;;2.85;2.50;;;;;;;;;;4978104;28;20023;-70
2023/10/08 04:16:55;;;;;;;2.83;2.50;;;;;;;;;;4978449;28;20043;-69
2023/10/08 04:19:26;;;;;;;3.17;2.33;;;;;;;;;;4960516;28;20042;-70
2023/10/08 04:21:55;;;;;;;3.75;2.70;;;;;;;;;;4978351;28;20038;-69
2023/10/08 04:24:34;;;;;;;2.93;2.63;;;;;;;;;;4978534;28;20027;-70
2023/10/08 04:27:03;;;;;;;2.53;2.33;;;;;;;;;;4980222;28;20030;-69
2023/10/08 04:29:32;;;;;;;3.15;2.47;;;;;;;;;;4978413;28;20026;-72
2023/10/08 04:32:07;;;;;;;2.95;2.47;;;;;;;;;;4978659;28;20361;-70
2023/10/08 04:34:35;;;;;;;3.47;2.70;;;;;;;;;;4976434;28;20115;-69
2023/10/08 04:37:03;;;;;;;4.00;2.67;;;;;;;;;;4976905;28;20034;-70
2023/10/08 04:39:35;;;;;;;3.22;2.55;;;;;;;;;;4978863;28;20027;-70
2023/10/08 04:42:10;;;;;;;3.90;2.55;;;;;;;;;;4976708;28;20069;-70
2023/10/08 04:44:39;;;;;;;3.28;2.53;;;;;;;;;;4978528;28;20046;-70
2023/10/08 04:47:06;;;;;;;3.00;2.35;;;;;;;;;;4981526;28;20075;-70
2023/10/08 04:49:34;;;;;;;3.33;2.40;;;;;;;;;;4982152;28;20519;-70
2023/10/08 04:52:14;;;;;;;2.78;2.30;;;;;;;;;;4982938;28;20127;-70
2023/10/08 04:54:41;;;;;;;3.15;2.50;;;;;;;;;;4980780;28;20035;-70
2023/10/08 04:57:15;;;;;;;3.17;2.50;;;;;;;;;;4981463;28;20077;-71
2023/10/08 04:59:42;;;;;;;3.30;2.83;;;;;;;;;;4981623;28;20026;-70
2023/10/08 05:02:20;;;;;;;2.70;2.40;;;;;;;;;;4981655;28;20023;-70
2023/10/08 05:04:56;;;;;;;3.83;2.83;;;;;;;;;;4981304;28;20358;-70
2023/10/08 05:13:01;;;;;;;2.80;2.47;;;;;;;;;;4982015;28;20058;-70
2023/10/08 05:15:33;;;;;;;2.92;2.60;;;;;;;;;;4980634;28;20042;-70
2023/10/08 05:18:13;;;;;;;3.47;2.60;;;;;;;;;;4980981;28;20058;-70
2023/10/08 05:28:46;;;;;;;3.58;2.55;;;;;;;;;;4980809;28;20069;-70
2023/10/08 05:36:50;;;;;;;2.90;2.35;;;;;;;;;;4977953;28;20045;-72
2023/10/08 05:39:29;;;;;;;3.45;2.78;;;;;;;;;;4981340;28;20026;-69
2023/10/08 05:44:45;;;;;;;2.40;2.20;;;;;;;;;;4983120;28;20089;-69
2023/10/08 05:47:37;;;;;;;3.38;2.40;;;;;;;;;;4980971;28;20023;-70
2023/10/08 05:55:28;;;;;;;2.83;2.30;;;;;;;;;;4983909;28;20081;-69
2023/10/08 06:01:29;;;;;;;2.45;2.25;;;;;;;;;;4981544;28;20486;-69
2023/10/08 06:03:32;;;;;;;2.88;2.55;;;;;;;;;;4971606;28;20029;-70
2023/10/08 06:14:16;;;;;;;3.75;2.70;;;;;;;;;;4979314;28;20075;-68
2023/10/08 06:16:44;;;;;;;3.15;2.70;;;;;;;;;;4979562;28;20531;-70
2023/10/08 06:19:15;;;;;;;3.03;2.65;;;;;;;;;;4981526;28;20035;-69
2023/10/08 06:21:42;;;;;;;3.58;2.50;;;;;;;;;;4981202;28;20436;-68
2023/10/08 06:24:09;;;;;;;2.88;2.58;;;;;;;;;;4981611;28;20592;-69
2023/10/08 06:26:48;;;;;;;3.28;2.80;;;;;;;;;;4979652;28;20031;-68
2023/10/08 06:29:47;;;;;;;2.65;2.40;;;;;;;;;;4980747;28;20046;-69
2023/10/08 06:32:07;;;;;;;2.60;2.40;;;;;;;;;;4975456;28;20038;-74
2023/10/08 06:34:32;;;;;;;3.45;2.50;;;;;;;;;;4979633;28;20483;-69
2023/10/08 06:37:01;;;;;;;2.50;2.22;;;;;;;;;;4977230;28;20038;-69
2023/10/08 06:39:47;;;;;;;3.38;2.42;;;;;;;;;;4980197;28;20011;-69
2023/10/08 06:42:16;;;;;;;3.42;2.63;;;;;;;;;;4981675;28;20018;-75
2023/10/08 06:44:48;;;;;;;2.58;2.38;;;;;;;;;;4981659;28;20027;-69
2023/10/08 06:47:15;;;;;;;3.03;2.65;;;;;;;;;;4978008;28;20053;-69
2023/10/08 06:49:45;;;;;;;3.15;2.80;;;;;;;;;;4978993;28;20030;-69
2023/10/08 06:52:12;;;;;;;2.60;2.35;;;;;;;;;;4979880;28;20054;-69
2023/10/08 06:54:38;;;;;;;3.05;2.55;;;;;;;;;;4980831;28;20025;-69
2023/10/08 06:57:03;;;;;;;2.60;2.20;;;;;;;;;;4981407;28;20470;-73
2023/10/08 06:59:31;;;;;;;2.47;2.20;;;;;;;;;;4980672;28;20053;-69
2023/10/08 07:01:58;;;;;;;3.25;2.58;;;;;;;;;;4979847;28;20416;-69
2023/10/08 07:04:24;;;;;;;2.83;2.63;;;;;;;;;;4979564;28;20027;-69
2023/10/08 07:06:50;;;;;;;3.40;2.80;;;;;;;;;;4959068;28;20041;-70
2023/10/08 07:09:28;;;;;;;2.50;2.22;;;;;;;;;;4977477;28;20027;-69
2023/10/08 07:11:55;;;;;;;2.80;2.50;;;;;;;;;;4977029;28;20030;-69
2023/10/08 07:14:22;;;;;;;3.00;2.50;;;;;;;;;;4977779;28;20383;-69
2023/10/08 07:16:52;;;;;;;3.15;2.47;;;;;;;;;;4978196;28;20488;-69
2023/10/08 07:19:18;;;;;;;2.95;2.40;;;;;;;;;;4979385;28;20030;-70
2023/10/08 07:21:46;;;;;;;3.17;2.63;;;;;;;;;;4978846;28;20022;-69
2023/10/08 07:24:16;;;;;;;3.17;2.53;;;;;;;;;;4978905;28;20058;-71
2023/10/08 07:26:46;;;;;;;2.55;2.35;;;;;;;;;;4959969;28;20450;-69
2023/10/08 07:29:19;;;;;;;2.85;2.55;;;;;;;;;;4978014;28;20388;-69
2023/10/08 07:31:52;;;;;;;3.60;2.50;;;;;;;;;;4978230;28;20031;-68
2023/10/08 07:34:25;;;;;;;3.10;2.75;;;;;;;;;;4979465;28;20026;-69
2023/10/08 07:36:52;;;;;;;3.28;2.67;;;;;;;;;;4976318;28;20035;-69
2023/10/08 07:39:25;;;;;;;3.00;2.65;;;;;;;;;;4977670;28;20105;-69
2023/10/08 07:41:53;;;;;;;2.63;2.38;;;;;;;;;;4977576;28;20027;-73
2023/10/08 07:44:23;;;;;;;3.20;2.65;;;;;;;;;;4977826;28;20027;-69
2023/10/08 07:46:54;;;;;;;4.00;2.78;;;;;;;;;;4977012;28;20031;-68
2023/10/08 07:49:20;;;;;;;3.10;2.78;;;;;;;;;;4976961;28;20217;-68
2023/10/08 07:51:50;;;;;;;3.40;2.55;;;;;;;;;;4977948;28;20241;-68
2023/10/08 07:54:22;;;;;;;4.18;2.78;;;;;;;;;;4977272;28;20101;-68
2023/10/08 07:56:48;;;;;;;2.90;2.60;;;;;;;;;;4978055;28;20035;-68
2023/10/08 07:59:16;;;;;;;3.28;2.70;;;;;;;;;;4979351;28;20027;-69
2023/10/08 08:01:42;;;;;;;3.00;2.53;;;;;;;;;;4979257;28;20027;-69
2023/10/08 08:04:21;;;;;;;5.50;2.70;;;;;;;;;;4979012;28;20031;-69
2023/10/08 08:06:50;;;;;;;3.17;2.65;;;;;;;;;;4975105;28;20035;-68
2023/10/08 08:09:23;;;;;;;4.35;3.00;;;;;;;;;;4962239;28;20490;-73
2023/10/08 08:11:49;;;;;;;2.95;2.45;;;;;;;;;;4977758;28;20522;-68
2023/10/08 08:14:24;;;;;;;3.08;2.70;;;;;;;;;;4978198;28;20027;-69
2023/10/08 08:16:50;;;;;;;3.28;2.63;;;;;;;;;;4978038;28;20069;-69
2023/10/08 08:19:17;;;;;;;3.30;2.60;;;;;;;;;;4980545;28;20027;-69
2023/10/08 08:21:45;;;;;;;3.97;2.83;;;;;;;;;;4981210;28;20122;-69
2023/10/08 08:24:28;;;;;;;2.92;2.63;;;;;;;;;;4981902;28;20023;-68
2023/10/08 08:27:01;;;;;;;2.80;2.35;;;;;;;;;;4981536;28;20026;-68
2023/10/08 08:29:28;;;;;;;3.20;2.85;;;;;;;;;;4982361;28;20522;-70
2023/10/08 08:31:56;;;;;;;3.55;2.65;;;;;;;;;;4980688;28;20086;-69
2023/10/08 08:34:23;;;;;;;3.63;2.78;;;;;;;;;;4980386;28;20022;-69
2023/10/08 08:36:49;;;;;;;3.78;2.40;;;;;;;;;;4978488;28;20357;-69
2023/10/08 08:39:32;;;;;;;3.20;2.70;;;;;;;;;;4983011;28;20041;-70
2023/10/08 08:42:06;;;;;;;3.00;2.58;;;;;;;;;;4985087;28;20023;-68
2023/10/08 08:44:39;;;;;;;4.32;2.78;;;;;;;;;;4985389;28;20026;-68
2023/10/08 08:47:06;;;;;;;2.92;2.58;;;;;;;;;;4970851;28;20031;-69
2023/10/08 08:49:37;;;;;;;2.95;2.45;;;;;;;;;;4985890;28;20019;-68
2023/10/08 08:52:03;;;;;;;3.72;2.90;;;;;;;;;;4985681;28;20052;-68
2023/10/08 08:54:30;;;;;;;3.63;2.50;;;;;;;;;;4982490;28;20038;-68
2023/10/08 08:56:59;;;;;;;3.33;2.53;;;;;;;;;;4984580;28;20111;-69
2023/10/08 08:59:25;;;;;;;3.73;2.53;;;;;;;;;;4982110;28;20038;-69
2023/10/08 09:01:53;;;;;;;2.80;2.50;;;;;;;;;;4982525;28;20026;-68
2023/10/08 09:04:29;;;;;;;3.97;2.58;;;;;;;;;;4982232;28;20023;-68
2023/10/08 09:06:55;;;;;;;3.13;2.45;;;;;;;;;;4977914;28;20031;-72
2023/10/08 09:09:25;;;;;;;3.60;2.55;;;;;;;;;;4979986;28;20027;-68
2023/10/08 09:11:52;;;;;;;3.28;2.33;;;;;;;;;;4982678;28;20066;-68
2023/10/08 09:14:26;;;;;;;2.83;2.40;;;;;;;;;;4981664;28;20043;-68
2023/10/08 09:16:56;;;;;;;3.30;2.55;;;;;;;;;;4979867;28;20039;-70
2023/10/08 09:19:24;;;;;;;2.67;2.45;;;;;;;;;;4981915;28;20027;-68
2023/10/08 09:22:04;;;;;;;3.17;2.67;;;;;;;;;;4980795;28;20073;-69
2023/10/08 09:24:33;;;;;;;2.40;2.15;;;;;;;;;;4982245;28;20031;-69
2023/10/08 09:27:02;;;;;;;2.92;2.60;;;;;;;;;;4981377;28;20417;-68
2023/10/08 09:29:28;;;;;;;2.50;2.30;;;;;;;;;;4979200;28;20031;-68
2023/10/08 09:31:56;;;;;;;2.65;2.45;;;;;;;;;;4979268;28;20105;-68
2023/10/08 09:34:26;;;;;;;4.05;2.60;;;;;;;;;;4978664;28;20026;-68
2023/10/08 09:36:53;;;;;;;;;;;;;;;;;;4979621;28;20019;-68
2023/10/08 09:39:23;;;;;;;3.40;2.58;;;;;;;;;;4979886;28;19956;-69
2023/10/08 09:41:51;;;;;;;2.97;2.30;;;;;;;;;;4981042;28;20106;-68
2023/10/08 09:44:19;;;;;;;3.22;2.38;;;;;;;;;;4980885;28;20455;-67
2023/10/08 09:46:52;;;;;;;3.47;2.58;;;;;;;;;;4982151;28;20077;-68
2023/10/08 09:49:28;;;;;;;3.85;2.75;;;;;;;;;;4980462;28;20074;-68
2023/10/08 09:51:55;;;;;;;4.95;2.50;;;;;;;;;;4976974;28;20031;-67
2023/10/08 09:54:31;;;;;;;3.10;2.70;;;;;;;;;;4976199;28;20031;-67
2023/10/08 09:56:58;;;;;;;3.30;2.65;;;;;;;;;;4981087;28;20476;-68
2023/10/08 09:59:27;;;;;;;4.18;2.50;;;;;;;;;;4980112;28;20476;-68
2023/10/08 10:01:59;;;;;;;4.78;2.80;;;;;;;;;;4982372;28;20023;-68
2023/10/08 10:04:25;;;;;;;5.38;2.67;;;;;;;;;;4980581;28;20472;-67
2023/10/08 10:06:52;;;;;;;6.57;3.20;;;;;;;;;;4960685;28;20026;-69
2023/10/08 10:09:22;;;;;;;3.33;2.40;;;;;;;;;;4982477;28;20070;-69
2023/10/08 10:11:52;;;;;;;3.17;2.83;;;;;;;;;;4985667;28;20519;-67
2023/10/08 10:14:26;;;;;;;4.45;2.50;;;;;;;;;;4985684;28;20091;-68
2023/10/08 10:17:15;;;;;;;5.28;2.50;;;;;;;;;;4986797;28;20129;-70
2023/10/08 10:19:45;;;;;;;3.75;2.58;;;;;;;;;;4984860;28;20369;-70
2023/10/08 10:22:17;;;;;;;4.28;2.60;;;;;;;;;;4987489;28;20030;-69
2023/10/08 10:24:45;;;;;;;2.95;2.60;;;;;;;;;;4987658;28;20077;-68
2023/10/08 10:27:15;;;;;;;3.78;2.70;;;;;;;;;;4983365;28;20034;-71
2023/10/08 10:29:45;;;;;;;4.28;2.80;;;;;;;;;;4986101;28;20023;-68
2023/10/08 10:32:15;;;;;;;4.38;2.60;;;;;;;;;;4979094;28;20027;-67
2023/10/08 10:34:42;;;;;;;3.25;2.38;;;;;;;;;;4982993;28;20094;-68
2023/10/08 10:37:19;;;;;;;4.03;2.67;;;;;;;;;;4977537;28;20480;-73
2023/10/08 10:39:58;;;;;;;5.75;2.83;;;;;;;;;;4976168;28;20113;-70
2023/10/08 10:42:26;;;;;;;2.80;2.30;;;;;;;;;;4984451;28;20015;-70
2023/10/08 10:44:53;;;;;;;6.03;2.90;;;;;;;;;;4986116;28;20038;-68
2023/10/08 10:49:53;;;;;;;2.92;2.60;;;;;;;;;;4984426;28;20022;-68
2023/10/08 10:52:32;;;;;;;5.78;2.60;;;;;;;;;;4969180;28;20023;-67
2023/10/08 10:57:43;;;;;;;3.38;2.40;;;;;;;;;;4987172;28;20041;-68
2023/10/08 11:02:59;;;;;;;6.25;3.08;;;;;;;;;;4987985;28;20081;-69
2023/10/08 11:05:29;;;;;;;4.75;2.60;;;;;;;;;;4979970;28;20035;-67
2023/10/08 11:08:04;;;;;;;;;;;;;;;;;;4982287;28;20023;-68
2023/10/08 11:10:38;;;;;;;8.85;2.53;;;;;;;;;;4986861;28;19917;-68
2023/10/08 11:13:14;;;;;;;5.43;2.35;;;;;;;;;;4986375;28;20030;-72
2023/10/08 11:15:40;;;;;;;4.38;2.90;;;;;;;;;;4970968;28;20098;-70
2023/10/08 11:18:17;;;;;;;3.42;2.65;;;;;;;;;;4984403;28;20226;-71
2023/10/08 11:20:46;;;;;;;5.82;2.90;;;;;;;;;;4986955;28;20061;-71
2023/10/08 11:23:34;;;;;;;3.58;2.50;;;;;;;;;;4986353;28;20030;-67
2023/10/08 11:26:02;;;;;;;5.32;2.47;;;;;;;;;;4982001;28;20111;-68
2023/10/08 11:28:29;;;;;;;4.15;2.33;;;;;;;;;;4987567;28;20031;-68
2023/10/08 11:30:59;;;;;;;3.80;2.60;;;;;;;;;;4984551;28;20041;-69
2023/10/08 11:33:27;;;;;;;3.65;2.58;;;;;;;;;;4983625;28;20027;-73
2023/10/08 11:36:27;;;;;;;4.03;2.60;;;;;;;;;;4981469;28;20101;-68
2023/10/08 11:38:56;;;;;;;3.72;2.47;;;;;;;;;;4980092;28;20037;-68
2023/10/08 11:41:21;;;;;;;2.90;2.22;;;;;;;;;;4987821;28;20050;-68
2023/10/08 11:43:58;;;;;;;3.05;2.63;;;;;;;;;;4966343;28;20062;-74
2023/10/08 11:46:38;;;;;;;3.58;2.60;;;;;;;;;;4985370;28;20033;-73
2023/10/08 11:49:04;;;;;;;3.25;2.40;;;;;;;;;;4979986;28;20058;-68
2023/10/08 11:51:34;;;;;;;6.05;2.85;;;;;;;;;;4984362;28;20484;-68
2023/10/08 11:54:05;;;;;;;;;;;;;;;;;;4986088;28;20313;-68
2023/10/08 11:56:33;;;;;;;4.22;2.33;;;;;;;;;;4985947;28;19921;-68
2023/10/08 11:59:05;;;;;;;7.85;2.70;;;;;;;;;;4990674;28;20103;-71
2023/10/08 12:01:35;;;;;;;4.82;2.88;;;;;;;;;;4989537;28;20062;-68
2023/10/08 12:04:01;;;;;;;5.40;2.65;;;;;;;;;;4986386;28;20476;-68
2023/10/08 12:06:29;;;;;;;3.70;2.45;;;;;;;;;;4983262;28;20434;-68
2023/10/08 12:08:58;;;;;;;3.90;2.35;;;;;;;;;;4988681;28;20035;-70
2023/10/08 12:11:30;;;;;;;6.50;2.85;;;;;;;;;;4987646;28;20278;-68
2023/10/08 12:13:58;;;;;;;4.25;2.45;;;;;;;;;;4988696;28;20090;-69
2023/10/08 12:16:29;;;;;;;4.25;2.10;;;;;;;;;;4988352;28;20033;-68
2023/10/08 12:18:58;;;;;;;3.20;2.40;;;;;;;;;;4988297;28;20554;-67
2023/10/08 12:21:31;;;;;;;4.60;3.13;;;;;;;;;;4991955;28;20010;-68
2023/10/08 12:24:01;;;;;;;6.10;2.40;;;;;;;;;;4988020;28;20027;-74
2023/10/08 12:26:27;;;;;;;3.38;2.70;;;;;;;;;;4990203;28;20047;-73
2023/10/08 12:28:53;;;;;;;3.53;2.38;;;;;;;;;;4990011;28;20034;-69
2023/10/08 12:31:24;;;;;;;4.80;2.75;;;;;;;;;;4987343;28;20058;-68
2023/10/08 12:34:00;;;;;;;7.55;2.60;;;;;;;;;;4986662;28;20037;-68
2023/10/08 12:36:32;;;;;;;4.20;2.60;;;;;;;;;;4984940;28;20475;-67
2023/10/08 12:38:59;;;;;;;4.38;2.90;;;;;;;;;;4987398;28;20041;-69
2023/10/08 12:41:27;;;;;;;4.53;2.45;;;;;;;;;;4988653;28;20027;-70
2023/10/08 12:43:53;;;;;;;6.43;3.13;;;;;;;;;;4986033;28;20035;-68
2023/10/08 12:46:30;;;;;;;4.43;2.60;;;;;;;;;;4984819;28;20045;-68
2023/10/08 12:48:56;;;;;;;5.88;2.88;;;;;;;;;;4988789;28;20033;-74
2023/10/08 12:51:25;;;;;;;6.18;2.35;;;;;;;;;;4987996;28;20487;-68
2023/10/08 12:53:58;;;;;;;4.85;2.60;;;;;;;;;;4991511;28;20019;-69
2023/10/08 12:56:31;;;;;;;6.65;2.45;;;;;;;;;;4986605;28;20427;-68
2023/10/08 12:58:58;;;;;;;4.82;2.42;;;;;;;;;;4985956;28;20035;-68
2023/10/08 13:01:28;;;;;;;4.93;2.60;;;;;;;;;;4989691;28;20035;-68
2023/10/08 13:03:59;;;;;;;6.70;2.75;;;;;;;;;;4987719;28;20027;-68
2023/10/08 13:06:28;;;;;;;4.05;2.70;;;;;;;;;;4979878;28;20019;-68
2023/10/08 13:08:58;;;;;;;4.47;2.58;;;;;;;;;;4968200;28;20030;-68
2023/10/08 13:11:34;;;;;;;6.30;3.08;;;;;;;;;;4983496;28;20074;-72
2023/10/08 13:13:59;;;;;;;4.68;2.40;;;;;;;;;;4983988;28;20454;-71
2023/10/08 13:16:30;;;;;;;4.55;2.65;;;;;;;;;;4986463;28;20026;-68
2023/10/08 13:18:58;;;;;;;4.20;2.60;;;;;;;;;;4986287;28;20038;-69
2023/10/08 13:21:28;;;;;;;2.65;2.30;;;;;;;;;;4986758;28;20062;-75
2023/10/08 13:23:59;;;;;;;5.07;2.80;;;;;;;;;;4985762;28;20511;-69
2023/10/08 13:26:32;;;;;;;2.88;2.58;;;;;;;;;;4985768;28;20026;-74
2023/10/08 13:28:58;;;;;;;6.40;2.75;;;;;;;;;;4985819;28;20034;-69
2023/10/08 13:31:25;;;;;;;4.57;2.60;;;;;;;;;;4984565;28;20416;-69
2023/10/08 13:33:52;;;;;;;5.45;3.00;;;;;;;;;;4984513;28;20134;-69
2023/10/08 13:36:18;;;;;;;5.30;2.53;;;;;;;;;;4981249;28;20023;-68
2023/10/08 13:38:46;;;;;;;5.63;2.38;;;;;;;;;;4984564;28;20019;-72
2023/10/08 13:41:14;;;;;;;6.40;2.50;;;;;;;;;;4982734;28;20035;-69
2023/10/08 13:43:48;;;;;;;4.93;2.80;;;;;;;;;;4983016;28;20026;-68
2023/10/08 13:46:19;;;;;;;3.50;2.78;;;;;;;;;;4984724;28;20023;-71
2023/10/08 13:48:50;;;;;;;3.60;2.38;;;;;;;;;;4983784;28;20014;-69
2023/10/08 13:51:20;;;;;;;6.78;2.55;;;;;;;;;;4982475;28;20026;-69
2023/10/08 13:54:09;;;;;;;8.38;2.60;;;;;;;;;;4984860;28;20035;-69
2023/10/08 13:56:37;;;;;;;4.07;2.53;;;;;;;;;;4984229;28;20025;-69
2023/10/08 13:59:05;;;;;;;4.60;2.70;;;;;;;;;;4983348;28;20022;-69
2023/10/08 14:01:34;;;;;;;5.68;2.38;;;;;;;;;;4982761;28;20035;-70
2023/10/08 14:04:07;;;;;;;4.55;2.70;;;;;;;;;;4980791;28;20031;-69
2023/10/08 14:06:34;;;;;;;4.90;2.60;;;;;;;;;;4978227;28;20058;-69
2023/10/08 14:09:00;;;;;;;3.63;2.50;;;;;;;;;;4984769;28;20058;-69
2023/10/08 14:11:30;;;;;;;4.00;2.20;;;;;;;;;;4985750;28;20010;-69
2023/10/08 14:14:02;;;;;;;7.80;2.53;;;;;;;;;;4984483;28;20087;-69
2023/10/08 14:16:32;;;;;;;4.70;2.55;;;;;;;;;;4980515;28;20512;-69
2023/10/08 14:18:59;;;;;;;7.95;2.40;;;;;;;;;;4983396;28;20045;-73
2023/10/08 14:21:30;;;;;;;4.72;2.38;;;;;;;;;;4984448;28;20035;-72
2023/10/08 14:24:03;;;;;;;6.47;2.45;;;;;;;;;;4986373;28;20043;-70
2023/10/08 14:26:35;;;;;;;3.83;2.40;;;;;;;;;;4981766;28;20082;-69
2023/10/08 14:29:07;;;;;;;3.55;2.20;;;;;;;;;;4965816;28;20356;-69
2023/10/08 14:31:38;;;;;;;7.45;2.47;;;;;;;;;;4965209;28;20031;-71
2023/10/08 14:45:11;;;;;;;3.72;2.28;;;;;;;;;;4986557;28;20034;-73
2023/10/08 14:47:39;;;;;;;2.83;1.98;;;;;;;;;;4981579;28;20408;-70
2023/10/08 14:50:13;;;;;;;3.45;2.08;;;;;;;;;;4984302;28;20086;-72
2023/10/08 14:52:38;;;;;;;2.78;1.83;;;;;;;;;;4979932;28;20086;-69
2023/10/08 14:55:04;;;;;;;2.78;1.90;;;;;;;;;;4984426;28;20054;-70
2023/10/08 14:57:29;;;;;;;3.42;1.90;;;;;;;;;;4978962;28;20056;-71
2023/10/08 14:59:56;;;;;;;3.30;1.88;;;;;;;;;;4981336;28;20026;-70
2023/10/08 15:02:22;;;;;;;2.92;2.15;;;;;;;;;;4983097;28;20027;-69
2023/10/08 15:04:47;;;;;;;2.97;1.90;;;;;;;;;;4981482;28;20029;-70
2023/10/08 15:07:17;;;;;;;2.03;1.73;;;;;;;;;;4977385;28;20038;-72
2023/10/08 15:09:44;;;;;;;;;;;;;;;;;;4983976;28;20058;-69
2023/10/08 15:12:10;;;;;;;2.60;2.03;;;;;;;;;;4983675;28;19984;-70
2023/10/08 15:14:37;;;;;;;2.63;2.10;;;;;;;;;;4980604;28;20027;-70
2023/10/08 15:17:05;;;;;;;4.45;1.92;;;;;;;;;;4984465;28;20047;-74
2023/10/08 15:19:31;;;;;;;3.13;1.77;;;;;;;;;;4983979;28;20487;-71
2023/10/08 15:21:58;;;;;;;3.22;2.08;;;;;;;;;;4982737;28;20499;-69
2023/10/08 15:24:24;;;;;;;2.65;1.90;;;;;;;;;;4982548;28;20011;-69
2023/10/08 15:26:54;;;;;;;3.45;1.90;;;;;;;;;;4981670;28;20529;-69
2023/10/08 15:29:20;;;;;;;;;;;;;;;;;;4982319;28;20531;-70
2023/10/08 15:31:49;;;;;;;2.05;1.85;;;;;;;;;;4980374;28;19918;-72
2023/10/08 15:34:15;;;;;;;3.47;1.80;;;;;;;;;;4982784;28;20061;-70
2023/10/08 15:36:41;;;;;;;3.05;2.05;;;;;;;;;;4977744;28;20391;-69
2023/10/08 15:39:12;;;;;;;2.92;1.80;;;;;;;;;;4982377;28;20037;-73
2023/10/08 15:41:38;;;;;;;3.15;1.70;;;;;;;;;;4982026;28;20062;-71
2023/10/08 15:44:04;;;;;;;2.58;1.85;;;;;;;;;;4982746;28;20464;-70
2023/10/08 15:46:34;;;;;;;2.35;2.00;;;;;;;;;;4981617;28;20047;-70
2023/10/08 15:49:02;;;;;;;3.17;1.83;;;;;;;;;;4983826;28;20478;-70
2023/10/08 15:51:29;;;;;;;2.00;1.80;;;;;;;;;;4980912;28;20245;-70
2023/10/08 15:53:55;;;;;;;1.55;1.45;;;;;;;;;;4983041;28;20123;-69
2023/10/08 15:56:21;;;;;;;2.78;1.50;;;;;;;;;;4980010;28;20043;-70
2023/10/08 15:58:46;;;;;;;2.00;1.60;;;;;;;;;;4980489;28;20034;-70
2023/10/08 16:01:12;;;;;;;2.17;1.50;;;;;;;;;;4981101;28;20467;-70
2023/10/08 16:03:41;;;;;;;2.42;1.50;;;;;;;;;;4983026;28;20014;-70
2023/10/08 16:06:06;;;;;;;3.75;2.10;;;;;;;;;;4979135;28;20045;-70
2023/10/08 16:08:32;;;;;;;2.50;1.90;;;;;;;;;;4979136;28;20026;-70
2023/10/08 16:10:57;;;;;;;1.88;1.70;;;;;;;;;;4963040;28;20364;-70
2023/10/08 16:13:23;;;;;;;1.90;1.60;;;;;;;;;;4980590;28;20023;-71
2023/10/08 16:15:48;;;;;;;1.55;1.45;;;;;;;;;;4979524;28;20010;-70
2023/10/08 16:18:14;;;;;;;1.67;1.58;;;;;;;;;;4981812;28;20047;-72
2023/10/08 16:20:40;;;;;;;2.13;1.58;;;;;;;;;;4981578;28;20027;-70